Página principal
METAR-TAF:

METAR-TAF

Aeroportos :

Aeroporto Internacional de Kuala Lumpur

Kuala Lumpur, Malásia

latitude: 02-44N, longitude: 101-42E, altura: 21 m

Observação actual do tempo

O boletim foi feito há 39 minutos, às 12:00 UTC
Vento 4 kt de nordeste, variando entre nor-noroeste e es-sudeste
Temperatura 26°C
Humidade 89%
Pressão 1010 hPa
Visibilidade: 9000 m
Poucas nuvensa uma altura de 3000 ft

METAR: WMKK 171200Z 04004KT 340V120 9000 FEW030 26/24 Q1010 NOSIG

Hora: 20:39 (12:39 UTC)

Previsão

O boletim foi feito há 1 hora e 39 minutos, às 11:00 UTC
Previsão válida de 17 às 12 UTC a 18 às 18 UTC
Vento 3 kt com direcção variável
Visibilidade: 9000 m
Poucas nuvensa uma altura de 1200 ft
Probabilidade 30% :
Temporariamente
de 17 às 23 UTC a 18 às 03 UTC
Visibilidade: 5000 m
Poucas nuvensa uma altura de 1700 ft, Cumulonimbus.
Nuvens dispersasa uma altura de 1800 ft
trovoada, chuva,

TAF: WMKK 171100Z 1712/1818 VRB03KT 9000 FEW012 PROB30 TEMPO 1723/1803 5000 TSRA FEW017CB SCT018

Observações e previsões do tempo de mais de 4000 aeroportos (mensagens METAR e TAF).

As estações disponíveis são os pontos amarelos e vermelhos sobre o mapa.

Mova o rato sobre o mapa para ver o nome da estação.

Depois clique no ponto para visualizar as observações e previsões meteorológicas.

Para alterar o mapa : clique nos botões verdes com uma cruz preta para aumentar o zoom; no botão verde com uma pitada de zoom; ou nas setas verdes para mapas adjacentes.


METAR-TAF: